sensor_id;sensor_type;location;lat;lon;timestamp;pressure;altitude;pressure_sealevel;temperature;humidity
54455;BME280;40364;52.270;10.546;2023-11-21T00:00:29;99972.38;;;16.93;70.61
54455;BME280;40364;52.270;10.546;2023-11-21T00:02:57;99965.53;;;16.91;70.68
54455;BME280;40364;52.270;10.546;2023-11-21T00:05:24;99963.09;;;17.49;67.42
54455;BME280;40364;52.270;10.546;2023-11-21T00:07:51;99930.97;;;16.83;69.43
54455;BME280;40364;52.270;10.546;2023-11-21T00:10:19;99958.25;;;17.57;66.68
54455;BME280;40364;52.270;10.546;2023-11-21T00:12:46;99965.16;;;17.28;67.13
54455;BME280;40364;52.270;10.546;2023-11-21T00:15:13;99960.72;;;17.37;67.56
54455;BME280;40364;52.270;10.546;2023-11-21T00:17:40;99973.09;;;17.93;64.27
54455;BME280;40364;52.270;10.546;2023-11-21T00:20:10;99967.31;;;18.25;63.61
54455;BME280;40364;52.270;10.546;2023-11-21T00:22:38;99979.56;;;17.76;65.67
54455;BME280;40364;52.270;10.546;2023-11-21T00:25:06;99971.53;;;17.71;66.28
54455;BME280;40364;52.270;10.546;2023-11-21T00:27:34;99978.00;;;17.25;69.00
54455;BME280;40364;52.270;10.546;2023-11-21T00:30:01;99974.69;;;17.91;65.53
54455;BME280;40364;52.270;10.546;2023-11-21T00:32:30;99980.44;;;17.09;69.00
54455;BME280;40364;52.270;10.546;2023-11-21T00:34:56;99979.53;;;16.59;70.76
54455;BME280;40364;52.270;10.546;2023-11-21T00:37:26;99976.41;;;17.28;68.12
54455;BME280;40364;52.270;10.546;2023-11-21T00:39:53;99977.59;;;16.84;72.31
54455;BME280;40364;52.270;10.546;2023-11-21T00:42:19;99979.84;;;18.13;65.41
54455;BME280;40364;52.270;10.546;2023-11-21T00:44:47;99985.09;;;18.04;65.31
54455;BME280;40364;52.270;10.546;2023-11-21T00:47:13;99989.28;;;17.32;68.68
54455;BME280;40364;52.270;10.546;2023-11-21T00:49:40;99985.94;;;17.98;64.67
54455;BME280;40364;52.270;10.546;2023-11-21T00:52:07;99995.69;;;17.68;66.67
54455;BME280;40364;52.270;10.546;2023-11-21T00:54:35;99996.84;;;17.89;66.46
54455;BME280;40364;52.270;10.546;2023-11-21T00:57:02;99995.72;;;17.40;70.39
54455;BME280;40364;52.270;10.546;2023-11-21T00:59:29;99996.44;;;17.79;69.40
54455;BME280;40364;52.270;10.546;2023-11-21T01:01:55;100001.34;;;17.04;73.62
54455;BME280;40364;52.270;10.546;2023-11-21T01:04:25;100005.31;;;16.82;75.01
54455;BME280;40364;52.270;10.546;2023-11-21T01:06:52;100004.31;;;16.25;79.16
54455;BME280;40364;52.270;10.546;2023-11-21T01:09:19;100009.22;;;16.38;78.23
54455;BME280;40364;52.270;10.546;2023-11-21T01:11:50;99997.25;;;17.91;70.56
54455;BME280;40364;52.270;10.546;2023-11-21T01:14:17;100012.34;;;16.19;77.52
54455;BME280;40364;52.270;10.546;2023-11-21T01:16:44;99991.69;;;16.80;75.02
54455;BME280;40364;52.270;10.546;2023-11-21T01:19:11;100010.59;;;17.30;73.01
54455;BME280;40364;52.270;10.546;2023-11-21T01:21:38;100005.34;;;17.00;74.15
54455;BME280;40364;52.270;10.546;2023-11-21T01:24:05;100008.16;;;16.96;74.50
54455;BME280;40364;52.270;10.546;2023-11-21T01:26:32;100014.19;;;17.20;73.54
54455;BME280;40364;52.270;10.546;2023-11-21T01:29:00;100002.94;;;17.09;74.14
54455;BME280;40364;52.270;10.546;2023-11-21T01:31:27;100013.84;;;15.99;81.15
54455;BME280;40364;52.270;10.546;2023-11-21T01:33:55;100018.09;;;15.71;84.21
54455;BME280;40364;52.270;10.546;2023-11-21T01:36:21;100014.13;;;16.66;77.16
54455;BME280;40364;52.270;10.546;2023-11-21T01:38:48;100000.13;;;17.20;74.30
54455;BME280;40364;52.270;10.546;2023-11-21T01:41:15;100007.75;;;17.58;70.40
54455;BME280;40364;52.270;10.546;2023-11-21T01:43:41;100004.63;;;18.50;64.52
54455;BME280;40364;52.270;10.546;2023-11-21T01:46:10;100016.31;;;18.60;64.62
54455;BME280;40364;52.270;10.546;2023-11-21T01:48:36;100014.75;;;18.37;64.85
54455;BME280;40364;52.270;10.546;2023-11-21T01:51:04;100025.28;;;18.30;65.45
54455;BME280;40364;52.270;10.546;2023-11-21T01:53:31;100018.16;;;18.84;62.54
54455;BME280;40364;52.270;10.546;2023-11-21T01:55:57;100023.78;;;17.93;65.64
54455;BME280;40364;52.270;10.546;2023-11-21T01:58:25;100031.91;;;17.27;68.68
54455;BME280;40364;52.270;10.546;2023-11-21T02:00:52;100033.09;;;17.15;72.65
54455;BME280;40364;52.270;10.546;2023-11-21T02:03:21;100052.78;;;16.98;76.61
54455;BME280;40364;52.270;10.546;2023-11-21T02:05:48;100045.47;;;16.65;75.86
54455;BME280;40364;52.270;10.546;2023-11-21T02:08:15;100047.97;;;17.27;73.18
54455;BME280;40364;52.270;10.546;2023-11-21T02:10:41;100041.53;;;17.51;69.38
54455;BME280;40364;52.270;10.546;2023-11-21T02:13:08;100047.16;;;17.23;72.05
54455;BME280;40364;52.270;10.546;2023-11-21T02:15:36;100041.13;;;17.10;73.81
54455;BME280;40364;52.270;10.546;2023-11-21T02:18:04;100038.72;;;17.79;70.71
54455;BME280;40364;52.270;10.546;2023-11-21T02:20:32;100038.25;;;16.71;76.73
54455;BME280;40364;52.270;10.546;2023-11-21T02:23:01;100043.84;;;16.64;77.95
54455;BME280;40364;52.270;10.546;2023-11-21T02:25:30;100042.34;;;17.23;73.75
54455;BME280;40364;52.270;10.546;2023-11-21T02:27:58;100048.22;;;16.50;77.12
54455;BME280;40364;52.270;10.546;2023-11-21T02:30:25;100047.13;;;16.87;77.26
54455;BME280;40364;52.270;10.546;2023-11-21T02:32:53;100044.75;;;17.25;74.04
54455;BME280;40364;52.270;10.546;2023-11-21T02:35:20;100053.94;;;16.72;77.27
54455;BME280;40364;52.270;10.546;2023-11-21T02:37:47;100047.16;;;17.23;73.80
54455;BME280;40364;52.270;10.546;2023-11-21T02:40:15;100049.97;;;17.23;75.38
54455;BME280;40364;52.270;10.546;2023-11-21T02:42:43;100049.97;;;17.23;73.66
54455;BME280;40364;52.270;10.546;2023-11-21T02:45:10;100047.56;;;17.32;72.16
54455;BME280;40364;52.270;10.546;2023-11-21T02:47:38;100053.13;;;18.10;68.69
54455;BME280;40364;52.270;10.546;2023-11-21T02:50:05;100047.94;;;18.01;67.65
54455;BME280;40364;52.270;10.546;2023-11-21T02:52:33;100050.81;;;17.69;69.91
54455;BME280;40364;52.270;10.546;2023-11-21T02:55:00;100053.19;;;17.96;69.00
54455;BME280;40364;52.270;10.546;2023-11-21T02:57:29;100053.53;;;18.12;68.98
54455;BME280;40364;52.270;10.546;2023-11-21T02:59:55;100059.13;;;18.30;66.51
54455;BME280;40364;52.270;10.546;2023-11-21T03:02:22;100047.97;;;17.48;68.70
54455;BME280;40364;52.270;10.546;2023-11-21T03:04:49;100062.84;;;17.59;70.46
54455;BME280;40364;52.270;10.546;2023-11-21T03:07:15;100069.69;;;17.87;68.86
54455;BME280;40364;52.270;10.546;2023-11-21T03:09:44;100064.09;;;17.69;70.35
54455;BME280;40364;52.270;10.546;2023-11-21T03:12:11;100070.09;;;17.92;68.31
54455;BME280;40364;52.270;10.546;2023-11-21T03:14:39;100075.72;;;17.99;68.29
54455;BME280;40364;52.270;10.546;2023-11-21T03:17:06;100072.47;;;18.04;68.29
54455;BME280;40364;52.270;10.546;2023-11-21T03:19:33;100069.94;;;18.38;65.79
54455;BME280;40364;52.270;10.546;2023-11-21T03:22:00;100074.50;;;17.54;70.87
54455;BME280;40364;52.270;10.546;2023-11-21T03:24:26;100082.13;;;17.22;73.84
54455;BME280;40364;52.270;10.546;2023-11-21T03:26:53;100086.97;;;17.21;75.34
54455;BME280;40364;52.270;10.546;2023-11-21T03:29:20;100080.97;;;17.58;73.44
54455;BME280;40364;52.270;10.546;2023-11-21T03:31:48;100076.13;;;17.83;73.04
54455;BME280;40364;52.270;10.546;2023-11-21T03:34:19;100082.56;;;17.98;72.60
54455;BME280;40364;52.270;10.546;2023-11-21T03:36:46;100094.66;;;17.77;73.74
54455;BME280;40364;52.270;10.546;2023-11-21T03:39:13;100092.16;;;18.22;70.54
54455;BME280;40364;52.270;10.546;2023-11-21T03:41:39;100084.97;;;17.89;72.12
54455;BME280;40364;52.270;10.546;2023-11-21T03:44:06;100096.69;;;17.66;72.65
54455;BME280;40364;52.270;10.546;2023-11-21T03:46:33;100096.66;;;17.41;74.93
54455;BME280;40364;52.270;10.546;2023-11-21T03:49:01;100095.44;;;18.03;72.07
54455;BME280;40364;52.270;10.546;2023-11-21T03:51:28;100099.06;;;17.93;71.45
54455;BME280;40364;52.270;10.546;2023-11-21T03:53:55;100107.50;;;17.54;73.11
54455;BME280;40364;52.270;10.546;2023-11-21T03:56:21;100107.13;;;17.66;73.85
54455;BME280;40364;52.270;10.546;2023-11-21T03:58:48;100118.00;;;17.85;73.18
54455;BME280;40364;52.270;10.546;2023-11-21T04:01:20;100107.91;;;17.41;75.40
54455;BME280;40364;52.270;10.546;2023-11-21T04:03:47;100113.97;;;17.68;74.32
54455;BME280;40364;52.270;10.546;2023-11-21T04:06:16;100117.19;;;17.88;72.72
54455;BME280;40364;52.270;10.546;2023-11-21T04:08:42;100104.25;;;18.15;71.48
54455;BME280;40364;52.270;10.546;2023-11-21T04:11:09;100111.50;;;18.06;71.10
54455;BME280;40364;52.270;10.546;2023-11-21T04:13:37;100121.56;;;18.21;70.43
54455;BME280;40364;52.270;10.546;2023-11-21T04:16:04;100117.84;;;18.63;68.14
54455;BME280;40364;52.270;10.546;2023-11-21T04:18:31;100124.31;;;18.42;69.17
54455;BME280;40364;52.270;10.546;2023-11-21T04:20:58;100130.88;;;18.00;71.64
54455;BME280;40364;52.270;10.546;2023-11-21T04:23:29;100113.81;;;18.46;70.24
54455;BME280;40364;52.270;10.546;2023-11-21T04:25:55;100125.59;;;17.31;75.09
54455;BME280;40364;52.270;10.546;2023-11-21T04:28:22;100132.47;;;17.76;73.52
54455;BME280;40364;52.270;10.546;2023-11-21T04:30:49;100137.69;;;18.06;71.26
54455;BME280;40364;52.270;10.546;2023-11-21T04:33:16;100132.88;;;18.03;71.43
54455;BME280;40364;52.270;10.546;2023-11-21T04:35:43;100136.50;;;17.75;72.99
54455;BME280;40364;52.270;10.546;2023-11-21T04:38:09;100139.72;;;17.67;74.02
54455;BME280;40364;52.270;10.546;2023-11-21T04:40:37;100141.28;;;18.32;72.28
54455;BME280;40364;52.270;10.546;2023-11-21T04:43:04;100140.47;;;17.46;75.53
54455;BME280;40364;52.270;10.546;2023-11-21T04:45:31;100152.22;;;17.66;74.94
54455;BME280;40364;52.270;10.546;2023-11-21T04:47:58;100148.97;;;17.92;73.36
54455;BME280;40364;52.270;10.546;2023-11-21T04:50:24;100151.38;;;18.08;72.38
54455;BME280;40364;52.270;10.546;2023-11-21T04:52:52;100157.44;;;17.96;72.82
54455;BME280;40364;52.270;10.546;2023-11-21T04:55:19;100164.66;;;18.11;72.32
54455;BME280;40364;52.270;10.546;2023-11-21T04:57:49;100169.09;;;17.94;74.30
54455;BME280;40364;52.270;10.546;2023-11-21T05:00:16;100178.97;;;16.99;81.65
54455;BME280;40364;52.270;10.546;2023-11-21T05:02:43;100183.84;;;17.06;82.59
54455;BME280;40364;52.270;10.546;2023-11-21T05:05:10;100182.56;;;16.93;82.19
54455;BME280;40364;52.270;10.546;2023-11-21T05:07:38;100174.25;;;17.35;81.73
54455;BME280;40364;52.270;10.546;2023-11-21T05:10:06;100180.63;;;17.18;83.13
54455;BME280;40364;52.270;10.546;2023-11-21T05:12:37;100194.47;;;17.87;77.16
54455;BME280;40364;52.270;10.546;2023-11-21T05:15:07;100196.06;;;17.81;79.35
54455;BME280;40364;52.270;10.546;2023-11-21T05:17:35;100189.56;;;17.52;78.92
54455;BME280;40364;52.270;10.546;2023-11-21T05:20:02;100191.25;;;17.92;77.36
54455;BME280;40364;52.270;10.546;2023-11-21T05:22:33;100202.44;;;17.53;78.56
54455;BME280;40364;52.270;10.546;2023-11-21T05:25:00;100214.19;;;17.94;76.52
54455;BME280;40364;52.270;10.546;2023-11-21T05:27:28;100217.28;;;16.49;84.57
54455;BME280;40364;52.270;10.546;2023-11-21T05:29:54;100215.28;;;17.33;81.38
54455;BME280;40364;52.270;10.546;2023-11-21T05:32:23;100208.44;;;17.34;81.88
54455;BME280;40364;52.270;10.546;2023-11-21T05:34:49;100216.72;;;16.91;84.81
54455;BME280;40364;52.270;10.546;2023-11-21T05:37:49;100215.78;;;17.92;78.44
54455;BME280;40364;52.270;10.546;2023-11-21T05:40:16;100217.34;;;17.64;80.17
54455;BME280;40364;52.270;10.546;2023-11-21T05:42:43;100218.59;;;17.70;80.52
54455;BME280;40364;52.270;10.546;2023-11-21T05:45:10;100225.44;;;17.83;78.03
54455;BME280;40364;52.270;10.546;2023-11-21T05:47:39;100224.66;;;18.15;77.80
54455;BME280;40364;52.270;10.546;2023-11-21T05:50:07;100218.56;;;17.63;79.51
54455;BME280;40364;52.270;10.546;2023-11-21T05:52:37;100227.47;;;17.90;77.68
54455;BME280;40364;52.270;10.546;2023-11-21T05:55:05;100228.25;;;17.87;76.17
54455;BME280;40364;52.270;10.546;2023-11-21T05:57:33;100230.28;;;18.08;76.76
54455;BME280;40364;52.270;10.546;2023-11-21T06:00:03;100228.25;;;17.69;78.35
54455;BME280;40364;52.270;10.546;2023-11-21T06:02:41;100241.84;;;17.49;78.65
54455;BME280;40364;52.270;10.546;2023-11-21T06:05:08;100245.72;;;17.02;85.60
54455;BME280;40364;52.270;10.546;2023-11-21T06:07:35;100244.25;;;17.51;80.59
54455;BME280;40364;52.270;10.546;2023-11-21T06:10:05;100252.84;;;17.94;79.23
54455;BME280;40364;52.270;10.546;2023-11-21T06:12:34;100255.41;;;17.19;81.79
54455;BME280;40364;52.270;10.546;2023-11-21T06:15:02;100250.56;;;17.05;81.14
54455;BME280;40364;52.270;10.546;2023-11-21T06:17:30;100265.28;;;17.71;77.45
54455;BME280;40364;52.270;10.546;2023-11-21T06:23:05;100274.31;;;17.11;80.80
54455;BME280;40364;52.270;10.546;2023-11-21T06:25:32;100276.25;;;17.00;79.81
54455;BME280;40364;52.270;10.546;2023-11-21T06:28:01;100268.84;;;16.71;80.61
54455;BME280;40364;52.270;10.546;2023-11-21T06:30:28;100282.72;;;17.08;79.42
54455;BME280;40364;52.270;10.546;2023-11-21T06:32:55;100293.47;;;16.92;79.35
54455;BME280;40364;52.270;10.546;2023-11-21T06:35:23;100306.69;;;16.84;79.82
54455;BME280;40364;52.270;10.546;2023-11-21T06:37:50;100302.47;;;16.57;81.50
54455;BME280;40364;52.270;10.546;2023-11-21T06:40:17;100296.84;;;16.57;80.98
54455;BME280;40364;52.270;10.546;2023-11-21T06:42:44;100304.75;;;16.40;81.40
54455;BME280;40364;52.270;10.546;2023-11-21T06:45:12;100313.53;;;16.35;82.10
54455;BME280;40364;52.270;10.546;2023-11-21T06:47:40;100318.84;;;16.00;83.05
54455;BME280;40364;52.270;10.546;2023-11-21T06:50:07;100321.09;;;15.50;86.40
54455;BME280;40364;52.270;10.546;2023-11-21T06:52:35;100326.19;;;15.41;89.03
54455;BME280;40364;52.270;10.546;2023-11-21T06:55:03;100328.88;;;15.34;86.84
54455;BME280;40364;52.270;10.546;2023-11-21T06:57:31;100341.00;;;16.08;83.11
54455;BME280;40364;52.270;10.546;2023-11-21T06:59:58;100330.03;;;15.96;80.77
54455;BME280;40364;52.270;10.546;2023-11-21T07:02:26;100340.53;;;16.03;79.45
54455;BME280;40364;52.270;10.546;2023-11-21T07:04:53;100351.56;;;16.22;79.91
54455;BME280;40364;52.270;10.546;2023-11-21T07:07:19;100352.84;;;15.91;79.93
54455;BME280;40364;52.270;10.546;2023-11-21T07:09:47;100360.06;;;16.29;79.14
54455;BME280;40364;52.270;10.546;2023-11-21T07:12:14;100377.91;;;16.51;75.80
54455;BME280;40364;52.270;10.546;2023-11-21T07:14:41;100371.84;;;16.01;78.51
54455;BME280;40364;52.270;10.546;2023-11-21T07:17:10;100366.72;;;15.73;78.13
54455;BME280;40364;52.270;10.546;2023-11-21T07:19:37;100359.09;;;16.11;76.22
54455;BME280;40364;52.270;10.546;2023-11-21T07:22:04;100370.88;;;15.87;77.70
54455;BME280;40364;52.270;10.546;2023-11-21T07:24:31;100371.41;;;16.40;75.35
54455;BME280;40364;52.270;10.546;2023-11-21T07:26:59;100384.88;;;17.15;72.00
54455;BME280;40364;52.270;10.546;2023-11-21T07:29:26;100372.06;;;16.26;74.46
54455;BME280;40364;52.270;10.546;2023-11-21T07:31:54;100386.34;;;16.47;73.42
54455;BME280;40364;52.270;10.546;2023-11-21T07:34:21;100390.34;;;16.06;75.39
54455;BME280;40364;52.270;10.546;2023-11-21T07:36:48;100395.69;;;15.81;77.11
54455;BME280;40364;52.270;10.546;2023-11-21T07:39:14;100398.66;;;16.32;74.99
54455;BME280;40364;52.270;10.546;2023-11-21T07:41:42;100408.78;;;15.70;77.57
54455;BME280;40364;52.270;10.546;2023-11-21T07:44:15;100405.94;;;15.66;80.11
54455;BME280;40364;52.270;10.546;2023-11-21T07:46:43;100413.97;;;16.38;75.07
54455;BME280;40364;52.270;10.546;2023-11-21T07:49:10;100427.81;;;16.61;73.93
54455;BME280;40364;52.270;10.546;2023-11-21T07:51:37;100418.91;;;16.11;75.30
54455;BME280;40364;52.270;10.546;2023-11-21T07:54:04;100430.75;;;16.31;72.84
54455;BME280;40364;52.270;10.546;2023-11-21T07:56:30;100433.78;;;16.12;77.41
54455;BME280;40364;52.270;10.546;2023-11-21T07:58:57;100440.66;;;16.59;71.56
54455;BME280;40364;52.270;10.546;2023-11-21T08:01:25;100445.81;;;16.12;73.56
54455;BME280;40364;52.270;10.546;2023-11-21T08:03:53;100444.38;;;15.36;78.34
54455;BME280;40364;52.270;10.546;2023-11-21T08:06:22;100442.00;;;16.31;73.79
54455;BME280;40364;52.270;10.546;2023-11-21T08:08:49;100458.25;;;16.48;71.08
54455;BME280;40364;52.270;10.546;2023-11-21T08:11:16;100463.44;;;15.49;71.82
54455;BME280;40364;52.270;10.546;2023-11-21T08:13:42;100467.28;;;16.65;67.98
54455;BME280;40364;52.270;10.546;2023-11-21T08:16:09;100465.00;;;16.07;67.41
54455;BME280;40364;52.270;10.546;2023-11-21T08:18:37;100472.44;;;16.63;66.67
54455;BME280;40364;52.270;10.546;2023-11-21T08:21:05;100479.78;;;16.34;66.87
54455;BME280;40364;52.270;10.546;2023-11-21T08:23:33;100470.09;;;17.74;60.19
54455;BME280;40364;52.270;10.546;2023-11-21T08:26:00;100473.38;;;17.83;58.57
54455;BME280;40364;52.270;10.546;2023-11-21T08:28:28;100479.34;;;17.68;59.10
54455;BME280;40364;52.270;10.546;2023-11-21T08:30:55;100492.53;;;17.60;58.62
54455;BME280;40364;52.270;10.546;2023-11-21T08:33:22;100479.13;;;17.36;58.98
54455;BME280;40364;52.270;10.546;2023-11-21T08:35:50;100493.28;;;18.26;57.75
54455;BME280;40364;52.270;10.546;2023-11-21T08:38:17;100487.97;;;18.07;57.29
54455;BME280;40364;52.270;10.546;2023-11-21T08:40:44;100494.84;;;18.13;57.08
54455;BME280;40364;52.270;10.546;2023-11-21T08:43:10;100497.88;;;17.76;57.70
54455;BME280;40364;52.270;10.546;2023-11-21T08:45:37;100502.25;;;18.67;55.28
54455;BME280;40364;52.270;10.546;2023-11-21T08:48:04;100499.03;;;17.13;56.48
54455;BME280;40364;52.270;10.546;2023-11-21T08:50:31;100505.88;;;16.68;57.47
54455;BME280;40364;52.270;10.546;2023-11-21T08:52:59;100508.66;;;17.08;56.69
54455;BME280;40364;52.270;10.546;2023-11-21T08:55:26;100514.31;;;16.34;57.30
54455;BME280;40364;52.270;10.546;2023-11-21T08:57:53;100510.50;;;17.38;55.51
54455;BME280;40364;52.270;10.546;2023-11-21T09:00:20;100519.06;;;17.04;55.66
54455;BME280;40364;52.270;10.546;2023-11-21T09:02:47;100521.25;;;16.77;55.58
54455;BME280;40364;52.270;10.546;2023-11-21T09:05:14;100520.59;;;16.58;56.71
54455;BME280;40364;52.270;10.546;2023-11-21T09:07:42;100512.75;;;17.18;54.98
54455;BME280;40364;52.270;10.546;2023-11-21T09:10:10;100534.78;;;17.60;54.17
54455;BME280;40364;52.270;10.546;2023-11-21T09:12:37;100538.03;;;17.14;53.48
54455;BME280;40364;52.270;10.546;2023-11-21T09:15:05;100536.84;;;17.15;54.41
54455;BME280;40364;52.270;10.546;2023-11-21T09:17:32;100534.28;;;15.96;55.03
54455;BME280;40364;52.270;10.546;2023-11-21T09:19:59;100544.84;;;17.61;52.77
54455;BME280;40364;52.270;10.546;2023-11-21T09:22:26;100545.16;;;18.11;50.55
54455;BME280;40364;52.270;10.546;2023-11-21T09:24:55;100545.88;;;19.05;49.04
54455;BME280;40364;52.270;10.546;2023-11-21T09:27:24;100547.09;;;19.33;47.92
54455;BME280;40364;52.270;10.546;2023-11-21T09:29:52;100556.16;;;18.41;48.78
54455;BME280;40364;52.270;10.546;2023-11-21T09:32:19;100551.63;;;18.15;47.71
54455;BME280;40364;52.270;10.546;2023-11-21T09:34:47;100560.25;;;18.54;48.59
54455;BME280;40364;52.270;10.546;2023-11-21T09:37:14;100563.06;;;18.54;49.04
54455;BME280;40364;52.270;10.546;2023-11-21T09:39:40;100573.22;;;17.86;49.62
54455;BME280;40364;52.270;10.546;2023-11-21T09:42:10;100569.78;;;18.21;50.16
54455;BME280;40364;52.270;10.546;2023-11-21T09:44:48;100571.66;;;18.86;48.01
54455;BME280;40364;52.270;10.546;2023-11-21T09:47:17;100579.50;;;18.38;48.40
54455;BME280;40364;52.270;10.546;2023-11-21T09:49:47;100587.56;;;18.39;47.96
54455;BME280;40364;52.270;10.546;2023-11-21T09:52:20;100583.81;;;18.03;48.19
54455;BME280;40364;52.270;10.546;2023-11-21T09:54:48;100588.28;;;17.12;48.83
54455;BME280;40364;52.270;10.546;2023-11-21T09:57:17;100588.00;;;16.84;50.92
54455;BME280;40364;52.270;10.546;2023-11-21T09:59:46;100591.22;;;17.74;49.76
54455;BME280;40364;52.270;10.546;2023-11-21T10:02:16;100595.00;;;17.45;50.70
54455;BME280;40364;52.270;10.546;2023-11-21T10:04:44;100598.66;;;18.04;49.25
54455;BME280;40364;52.270;10.546;2023-11-21T10:07:11;100603.06;;;17.94;49.09
54455;BME280;40364;52.270;10.546;2023-11-21T10:09:41;100608.16;;;16.90;52.25
54455;BME280;40364;52.270;10.546;2023-11-21T10:12:09;100619.63;;;18.06;49.91
54455;BME280;40364;52.270;10.546;2023-11-21T10:14:40;100622.06;;;17.57;50.84
54455;BME280;40364;52.270;10.546;2023-11-21T10:17:12;100622.69;;;18.52;48.13
54455;BME280;40364;52.270;10.546;2023-11-21T10:19:39;100633.94;;;17.80;48.04
54455;BME280;40364;52.270;10.546;2023-11-21T10:22:07;100630.69;;;17.74;48.47
54455;BME280;40364;52.270;10.546;2023-11-21T10:24:34;100637.44;;;18.21;48.15
54455;BME280;40364;52.270;10.546;2023-11-21T10:27:00;100625.94;;;17.38;47.88
54455;BME280;40364;52.270;10.546;2023-11-21T10:29:29;100635.66;;;17.47;49.29
54455;BME280;40364;52.270;10.546;2023-11-21T10:31:55;100636.22;;;17.64;48.18
54455;BME280;40364;52.270;10.546;2023-11-21T10:34:25;100635.78;;;17.17;48.86
54455;BME280;40364;52.270;10.546;2023-11-21T10:36:53;100643.72;;;17.93;47.88
54455;BME280;40364;52.270;10.546;2023-11-21T10:39:24;100649.19;;;18.37;46.81
54455;BME280;40364;52.270;10.546;2023-11-21T10:41:54;100652.91;;;17.87;46.76
54455;BME280;40364;52.270;10.546;2023-11-21T10:44:21;100653.38;;;17.92;47.72
54455;BME280;40364;52.270;10.546;2023-11-21T10:46:50;100649.72;;;17.92;46.66
54455;BME280;40364;52.270;10.546;2023-11-21T10:49:17;100663.34;;;17.01;47.09
54455;BME280;40364;52.270;10.546;2023-11-21T10:51:46;100664.00;;;18.16;46.50
54455;BME280;40364;52.270;10.546;2023-11-21T10:54:17;100654.25;;;18.07;46.73
54455;BME280;40364;52.270;10.546;2023-11-21T10:56:45;100656.78;;;17.27;46.96
54455;BME280;40364;52.270;10.546;2023-11-21T10:59:12;100663.31;;;18.37;46.63
54455;BME280;40364;52.270;10.546;2023-11-21T11:01:41;100669.31;;;19.15;45.98
54455;BME280;40364;52.270;10.546;2023-11-21T11:04:09;100673.25;;;18.90;44.35
54455;BME280;40364;52.270;10.546;2023-11-21T11:06:42;100679.53;;;18.55;45.62
54455;BME280;40364;52.270;10.546;2023-11-21T11:09:13;100679.59;;;17.56;47.30
54455;BME280;40364;52.270;10.546;2023-11-21T11:11:40;100678.47;;;17.64;46.48
54455;BME280;40364;52.270;10.546;2023-11-21T11:14:10;100683.38;;;18.94;45.66
54455;BME280;40364;52.270;10.546;2023-11-21T11:16:39;100684.81;;;18.60;46.25
54455;BME280;40364;52.270;10.546;2023-11-21T11:19:06;100672.34;;;18.61;46.13
54455;BME280;40364;52.270;10.546;2023-11-21T11:21:42;100684.19;;;19.05;45.60
54455;BME280;40364;52.270;10.546;2023-11-21T11:24:24;100688.28;;;18.32;46.17
54455;BME280;40364;52.270;10.546;2023-11-21T11:26:59;100687.28;;;18.06;45.87
54455;BME280;40364;52.270;10.546;2023-11-21T11:29:35;100692.59;;;17.67;46.43
54455;BME280;40364;52.270;10.546;2023-11-21T11:32:13;100691.47;;;18.30;45.34
54455;BME280;40364;52.270;10.546;2023-11-21T11:34:46;100696.06;;;18.56;45.47
54455;BME280;40364;52.270;10.546;2023-11-21T11:37:15;100704.72;;;18.88;44.74
54455;BME280;40364;52.270;10.546;2023-11-21T11:39:43;100705.13;;;18.97;44.46
54455;BME280;40364;52.270;10.546;2023-11-21T11:42:12;100706.81;;;18.36;45.43
54455;BME280;40364;52.270;10.546;2023-11-21T11:44:47;100715.63;;;18.93;45.27
54455;BME280;40364;52.270;10.546;2023-11-21T11:47:20;100715.13;;;18.77;45.85
54455;BME280;40364;52.270;10.546;2023-11-21T11:50:04;100715.31;;;19.34;45.13
54455;BME280;40364;52.270;10.546;2023-11-21T11:52:38;100716.44;;;18.28;46.10
54455;BME280;40364;52.270;10.546;2023-11-21T11:55:08;100716.50;;;18.39;45.49
54455;BME280;40364;52.270;10.546;2023-11-21T11:57:39;100714.13;;;18.44;45.11
54455;BME280;40364;52.270;10.546;2023-11-21T12:00:14;100728.16;;;19.10;44.80
54455;BME280;40364;52.270;10.546;2023-11-21T12:02:46;100731.38;;;19.05;44.07
54455;BME280;40364;52.270;10.546;2023-11-21T12:05:14;100723.81;;;19.34;43.26
54455;BME280;40364;52.270;10.546;2023-11-21T12:07:46;100731.44;;;19.19;43.02
54455;BME280;40364;52.270;10.546;2023-11-21T12:10:15;100719.78;;;19.38;42.95
54455;BME280;40364;52.270;10.546;2023-11-21T12:12:56;100733.22;;;19.80;42.89
54455;BME280;40364;52.270;10.546;2023-11-21T12:15:26;100731.13;;;18.00;44.57
54455;BME280;40364;52.270;10.546;2023-11-21T12:17:55;100740.13;;;18.20;44.18
54455;BME280;40364;52.270;10.546;2023-11-21T12:20:23;100743.16;;;18.48;44.45
54455;BME280;40364;52.270;10.546;2023-11-21T12:22:51;100746.66;;;18.90;42.85
54455;BME280;40364;52.270;10.546;2023-11-21T12:25:21;100743.78;;;18.24;43.00
54455;BME280;40364;52.270;10.546;2023-11-21T12:27:50;100742.78;;;18.54;43.33
54455;BME280;40364;52.270;10.546;2023-11-21T12:30:18;100738.25;;;18.38;42.84
54455;BME280;40364;52.270;10.546;2023-11-21T12:32:48;100755.13;;;18.31;43.70
54455;BME280;40364;52.270;10.546;2023-11-21T12:35:15;100761.31;;;18.00;44.61
54455;BME280;40364;52.270;10.546;2023-11-21T12:37:45;100763.56;;;18.86;44.34
54455;BME280;40364;52.270;10.546;2023-11-21T12:40:13;100778.03;;;18.81;43.48
54455;BME280;40364;52.270;10.546;2023-11-21T12:42:43;100778.38;;;18.17;43.57
54455;BME280;40364;52.270;10.546;2023-11-21T12:45:18;100783.38;;;18.42;43.23
54455;BME280;40364;52.270;10.546;2023-11-21T12:47:47;100784.22;;;17.58;44.28